sensor_id;sensor_type;location;lat;lon;timestamp;P1;durP1;ratioP1;P2;durP2;ratioP2
46158;SDS011;31888;44.512;26.104;2023-11-19T00:00:42;4.60;;;2.05;;
46158;SDS011;31888;44.512;26.104;2023-11-19T00:03:14;6.68;;;3.15;;
46158;SDS011;31888;44.512;26.104;2023-11-19T00:05:38;4.32;;;2.38;;
46158;SDS011;31888;44.512;26.104;2023-11-19T00:08:02;5.20;;;2.83;;
46158;SDS011;31888;44.512;26.104;2023-11-19T00:10:27;4.90;;;2.70;;
46158;SDS011;31888;44.512;26.104;2023-11-19T00:12:52;5.03;;;2.40;;
46158;SDS011;31888;44.512;26.104;2023-11-19T00:15:16;4.60;;;2.53;;
46158;SDS011;31888;44.512;26.104;2023-11-19T00:17:43;2.83;;;1.95;;
46158;SDS011;31888;44.512;26.104;2023-11-19T00:20:10;4.75;;;2.40;;
46158;SDS011;31888;44.512;26.104;2023-11-19T00:22:34;3.38;;;2.10;;
46158;SDS011;31888;44.512;26.104;2023-11-19T00:25:10;5.13;;;2.70;;
46158;SDS011;31888;44.512;26.104;2023-11-19T00:27:34;5.20;;;2.08;;
46158;SDS011;31888;44.512;26.104;2023-11-19T00:29:59;4.38;;;2.38;;
46158;SDS011;31888;44.512;26.104;2023-11-19T00:32:23;4.93;;;2.40;;
46158;SDS011;31888;44.512;26.104;2023-11-19T00:34:48;5.85;;;2.13;;
46158;SDS011;31888;44.512;26.104;2023-11-19T00:37:12;3.70;;;1.92;;
46158;SDS011;31888;44.512;26.104;2023-11-19T00:39:40;3.83;;;2.40;;
46158;SDS011;31888;44.512;26.104;2023-11-19T00:42:04;4.00;;;2.13;;
46158;SDS011;31888;44.512;26.104;2023-11-19T00:44:28;3.03;;;1.83;;
46158;SDS011;31888;44.512;26.104;2023-11-19T00:46:52;5.10;;;2.53;;
46158;SDS011;31888;44.512;26.104;2023-11-19T00:49:15;4.68;;;2.25;;
46158;SDS011;31888;44.512;26.104;2023-11-19T00:51:41;4.05;;;2.20;;
46158;SDS011;31888;44.512;26.104;2023-11-19T00:54:05;3.35;;;1.85;;
46158;SDS011;31888;44.512;26.104;2023-11-19T00:56:29;3.35;;;2.20;;
46158;SDS011;31888;44.512;26.104;2023-11-19T00:58:53;3.10;;;1.70;;
46158;SDS011;31888;44.512;26.104;2023-11-19T01:01:17;4.05;;;2.20;;
46158;SDS011;31888;44.512;26.104;2023-11-19T01:03:41;3.50;;;2.00;;
46158;SDS011;31888;44.512;26.104;2023-11-19T01:06:06;3.80;;;2.05;;
46158;SDS011;31888;44.512;26.104;2023-11-19T01:08:32;2.55;;;1.92;;
46158;SDS011;31888;44.512;26.104;2023-11-19T01:10:57;3.05;;;1.90;;
46158;SDS011;31888;44.512;26.104;2023-11-19T01:13:22;3.78;;;2.25;;
46158;SDS011;31888;44.512;26.104;2023-11-19T01:15:46;4.82;;;2.65;;
46158;SDS011;31888;44.512;26.104;2023-11-19T01:18:11;3.35;;;2.25;;
46158;SDS011;31888;44.512;26.104;2023-11-19T01:20:35;3.00;;;2.08;;
46158;SDS011;31888;44.512;26.104;2023-11-19T01:23:00;3.13;;;2.25;;
46158;SDS011;31888;44.512;26.104;2023-11-19T01:25:26;4.22;;;2.42;;
46158;SDS011;31888;44.512;26.104;2023-11-19T01:27:50;4.38;;;2.90;;
46158;SDS011;31888;44.512;26.104;2023-11-19T01:30:14;4.50;;;2.40;;
46158;SDS011;31888;44.512;26.104;2023-11-19T01:32:39;4.55;;;2.40;;
46158;SDS011;31888;44.512;26.104;2023-11-19T01:35:03;2.50;;;1.90;;
46158;SDS011;31888;44.512;26.104;2023-11-19T01:37:31;4.30;;;2.38;;
46158;SDS011;31888;44.512;26.104;2023-11-19T01:39:56;3.92;;;2.28;;
46158;SDS011;31888;44.512;26.104;2023-11-19T01:42:22;3.55;;;2.10;;
46158;SDS011;31888;44.512;26.104;2023-11-19T01:44:54;3.97;;;2.38;;
46158;SDS011;31888;44.512;26.104;2023-11-19T01:47:21;3.08;;;2.08;;
46158;SDS011;31888;44.512;26.104;2023-11-19T01:49:46;3.83;;;2.28;;
46158;SDS011;31888;44.512;26.104;2023-11-19T01:52:10;3.63;;;2.10;;
46158;SDS011;31888;44.512;26.104;2023-11-19T01:54:34;4.78;;;2.28;;
46158;SDS011;31888;44.512;26.104;2023-11-19T01:56:58;3.47;;;2.10;;
46158;SDS011;31888;44.512;26.104;2023-11-19T01:59:24;3.75;;;2.30;;
46158;SDS011;31888;44.512;26.104;2023-11-19T02:01:49;4.28;;;2.67;;
46158;SDS011;31888;44.512;26.104;2023-11-19T02:04:22;5.72;;;2.55;;
46158;SDS011;31888;44.512;26.104;2023-11-19T02:06:46;4.22;;;2.40;;
46158;SDS011;31888;44.512;26.104;2023-11-19T02:09:11;7.15;;;2.70;;
46158;SDS011;31888;44.512;26.104;2023-11-19T02:11:35;4.13;;;2.50;;
46158;SDS011;31888;44.512;26.104;2023-11-19T02:13:59;5.82;;;2.90;;
46158;SDS011;31888;44.512;26.104;2023-11-19T02:16:26;3.83;;;2.33;;
46158;SDS011;31888;44.512;26.104;2023-11-19T02:18:50;5.22;;;2.80;;
46158;SDS011;31888;44.512;26.104;2023-11-19T02:21:14;8.57;;;2.25;;
46158;SDS011;31888;44.512;26.104;2023-11-19T02:23:40;6.25;;;2.33;;
46158;SDS011;31888;44.512;26.104;2023-11-19T02:26:07;5.50;;;2.90;;
46158;SDS011;31888;44.512;26.104;2023-11-19T02:28:38;3.95;;;2.70;;
46158;SDS011;31888;44.512;26.104;2023-11-19T02:31:02;6.03;;;2.72;;
46158;SDS011;31888;44.512;26.104;2023-11-19T02:33:32;4.80;;;2.50;;
46158;SDS011;31888;44.512;26.104;2023-11-19T02:35:55;6.10;;;2.45;;
46158;SDS011;31888;44.512;26.104;2023-11-19T02:38:19;3.45;;;2.47;;
46158;SDS011;31888;44.512;26.104;2023-11-19T02:40:43;4.97;;;2.20;;
46158;SDS011;31888;44.512;26.104;2023-11-19T02:43:07;5.53;;;2.50;;
46158;SDS011;31888;44.512;26.104;2023-11-19T02:45:33;3.42;;;2.45;;
46158;SDS011;31888;44.512;26.104;2023-11-19T02:47:57;5.13;;;2.78;;
46158;SDS011;31888;44.512;26.104;2023-11-19T02:50:23;7.90;;;2.85;;
46158;SDS011;31888;44.512;26.104;2023-11-19T02:52:48;5.07;;;2.88;;
46158;SDS011;31888;44.512;26.104;2023-11-19T02:55:12;4.70;;;2.85;;
46158;SDS011;31888;44.512;26.104;2023-11-19T02:57:36;3.95;;;2.65;;
46158;SDS011;31888;44.512;26.104;2023-11-19T03:00:00;4.90;;;2.90;;
46158;SDS011;31888;44.512;26.104;2023-11-19T03:02:35;5.00;;;2.92;;
46158;SDS011;31888;44.512;26.104;2023-11-19T03:05:07;4.80;;;2.80;;
46158;SDS011;31888;44.512;26.104;2023-11-19T03:07:31;4.00;;;2.65;;
46158;SDS011;31888;44.512;26.104;2023-11-19T03:09:54;6.93;;;3.05;;
46158;SDS011;31888;44.512;26.104;2023-11-19T03:12:18;5.53;;;2.95;;
46158;SDS011;31888;44.512;26.104;2023-11-19T03:14:42;4.57;;;2.75;;
46158;SDS011;31888;44.512;26.104;2023-11-19T03:17:06;5.68;;;3.22;;
46158;SDS011;31888;44.512;26.104;2023-11-19T03:19:33;8.50;;;3.70;;
46158;SDS011;31888;44.512;26.104;2023-11-19T03:21:57;5.60;;;3.42;;
46158;SDS011;31888;44.512;26.104;2023-11-19T03:24:21;8.05;;;4.47;;
46158;SDS011;31888;44.512;26.104;2023-11-19T03:26:47;5.65;;;3.33;;
46158;SDS011;31888;44.512;26.104;2023-11-19T03:29:12;7.43;;;3.85;;
46158;SDS011;31888;44.512;26.104;2023-11-19T03:31:36;5.85;;;3.45;;
46158;SDS011;31888;44.512;26.104;2023-11-19T03:34:04;6.53;;;3.60;;
46158;SDS011;31888;44.512;26.104;2023-11-19T03:36:33;6.38;;;3.53;;
46158;SDS011;31888;44.512;26.104;2023-11-19T03:38:56;6.15;;;3.45;;
46158;SDS011;31888;44.512;26.104;2023-11-19T03:41:20;10.05;;;3.33;;
46158;SDS011;31888;44.512;26.104;2023-11-19T03:43:44;5.93;;;3.25;;
46158;SDS011;31888;44.512;26.104;2023-11-19T03:46:15;4.00;;;2.67;;
46158;SDS011;31888;44.512;26.104;2023-11-19T03:48:41;5.32;;;2.40;;
46158;SDS011;31888;44.512;26.104;2023-11-19T03:51:05;4.93;;;2.55;;
46158;SDS011;31888;44.512;26.104;2023-11-19T03:53:30;4.03;;;2.58;;
46158;SDS011;31888;44.512;26.104;2023-11-19T03:55:54;3.38;;;2.30;;
46158;SDS011;31888;44.512;26.104;2023-11-19T03:58:18;7.90;;;3.15;;
46158;SDS011;31888;44.512;26.104;2023-11-19T04:00:42;6.90;;;2.90;;
46158;SDS011;31888;44.512;26.104;2023-11-19T04:03:06;7.38;;;3.50;;
46158;SDS011;31888;44.512;26.104;2023-11-19T04:05:31;7.82;;;3.45;;
46158;SDS011;31888;44.512;26.104;2023-11-19T04:07:55;4.43;;;2.90;;
46158;SDS011;31888;44.512;26.104;2023-11-19T04:10:21;3.67;;;2.58;;
46158;SDS011;31888;44.512;26.104;2023-11-19T04:12:45;5.43;;;2.72;;
46158;SDS011;31888;44.512;26.104;2023-11-19T04:15:09;4.45;;;2.55;;
46158;SDS011;31888;44.512;26.104;2023-11-19T04:17:34;5.43;;;2.53;;
46158;SDS011;31888;44.512;26.104;2023-11-19T04:19:58;4.05;;;2.47;;
46158;SDS011;31888;44.512;26.104;2023-11-19T04:22:22;4.32;;;2.60;;
46158;SDS011;31888;44.512;26.104;2023-11-19T04:24:46;3.75;;;1.98;;
46158;SDS011;31888;44.512;26.104;2023-11-19T04:27:12;4.72;;;2.50;;
46158;SDS011;31888;44.512;26.104;2023-11-19T04:29:36;3.90;;;2.33;;
46158;SDS011;31888;44.512;26.104;2023-11-19T04:32:00;3.53;;;2.55;;
46158;SDS011;31888;44.512;26.104;2023-11-19T04:34:24;4.82;;;2.85;;
46158;SDS011;31888;44.512;26.104;2023-11-19T04:36:48;3.53;;;2.50;;
46158;SDS011;31888;44.512;26.104;2023-11-19T04:39:12;3.90;;;2.50;;
46158;SDS011;31888;44.512;26.104;2023-11-19T04:41:45;4.47;;;3.17;;
46158;SDS011;31888;44.512;26.104;2023-11-19T04:44:12;5.90;;;2.95;;
46158;SDS011;31888;44.512;26.104;2023-11-19T04:46:36;6.13;;;2.92;;
46158;SDS011;31888;44.512;26.104;2023-11-19T04:49:00;4.90;;;3.03;;
46158;SDS011;31888;44.512;26.104;2023-11-19T04:51:24;7.85;;;3.13;;
46158;SDS011;31888;44.512;26.104;2023-11-19T04:53:48;4.32;;;2.80;;
46158;SDS011;31888;44.512;26.104;2023-11-19T04:56:12;3.92;;;2.80;;
46158;SDS011;31888;44.512;26.104;2023-11-19T04:58:37;4.40;;;2.90;;
46158;SDS011;31888;44.512;26.104;2023-11-19T05:01:03;4.70;;;3.03;;
46158;SDS011;31888;44.512;26.104;2023-11-19T05:03:27;5.13;;;2.88;;
46158;SDS011;31888;44.512;26.104;2023-11-19T05:05:51;5.15;;;2.85;;
46158;SDS011;31888;44.512;26.104;2023-11-19T05:08:15;4.78;;;2.80;;
46158;SDS011;31888;44.512;26.104;2023-11-19T05:10:39;4.93;;;3.40;;
46158;SDS011;31888;44.512;26.104;2023-11-19T05:13:03;6.65;;;2.95;;
46158;SDS011;31888;44.512;26.104;2023-11-19T05:15:27;8.13;;;3.22;;
46158;SDS011;31888;44.512;26.104;2023-11-19T05:17:52;5.80;;;3.72;;
46158;SDS011;31888;44.512;26.104;2023-11-19T05:20:16;6.75;;;4.15;;
46158;SDS011;31888;44.512;26.104;2023-11-19T05:22:40;8.48;;;4.68;;
46158;SDS011;31888;44.512;26.104;2023-11-19T05:25:05;11.82;;;5.80;;
46158;SDS011;31888;44.512;26.104;2023-11-19T05:27:30;12.52;;;6.78;;
46158;SDS011;31888;44.512;26.104;2023-11-19T05:29:54;16.65;;;6.32;;
46158;SDS011;31888;44.512;26.104;2023-11-19T05:32:19;11.60;;;5.55;;
46158;SDS011;31888;44.512;26.104;2023-11-19T05:34:44;13.30;;;7.90;;
46158;SDS011;31888;44.512;26.104;2023-11-19T05:37:11;17.35;;;8.98;;
46158;SDS011;31888;44.512;26.104;2023-11-19T05:39:34;17.95;;;8.90;;
46158;SDS011;31888;44.512;26.104;2023-11-19T05:41:58;18.85;;;9.93;;
46158;SDS011;31888;44.512;26.104;2023-11-19T05:44:22;22.00;;;11.05;;
46158;SDS011;31888;44.512;26.104;2023-11-19T05:46:46;21.20;;;11.18;;
46158;SDS011;31888;44.512;26.104;2023-11-19T05:49:10;23.98;;;10.65;;
46158;SDS011;31888;44.512;26.104;2023-11-19T05:51:37;24.00;;;10.90;;
46158;SDS011;31888;44.512;26.104;2023-11-19T05:54:01;21.48;;;10.35;;
46158;SDS011;31888;44.512;26.104;2023-11-19T05:56:26;27.17;;;13.23;;
46158;SDS011;31888;44.512;26.104;2023-11-19T05:58:54;22.05;;;11.60;;
46158;SDS011;31888;44.512;26.104;2023-11-19T06:01:18;23.25;;;11.00;;
46158;SDS011;31888;44.512;26.104;2023-11-19T06:03:42;19.70;;;9.65;;
46158;SDS011;31888;44.512;26.104;2023-11-19T06:06:09;17.08;;;9.70;;
46158;SDS011;31888;44.512;26.104;2023-11-19T06:08:37;19.48;;;10.05;;
46158;SDS011;31888;44.512;26.104;2023-11-19T06:11:01;19.50;;;9.57;;
46158;SDS011;31888;44.512;26.104;2023-11-19T06:13:25;18.27;;;9.32;;
46158;SDS011;31888;44.512;26.104;2023-11-19T06:15:49;17.92;;;8.80;;
46158;SDS011;31888;44.512;26.104;2023-11-19T06:18:13;17.50;;;9.15;;
46158;SDS011;31888;44.512;26.104;2023-11-19T06:20:37;16.63;;;8.27;;
46158;SDS011;31888;44.512;26.104;2023-11-19T06:23:05;14.07;;;7.55;;
46158;SDS011;31888;44.512;26.104;2023-11-19T06:25:30;14.60;;;8.38;;
46158;SDS011;31888;44.512;26.104;2023-11-19T06:27:54;14.27;;;8.50;;
46158;SDS011;31888;44.512;26.104;2023-11-19T06:30:19;19.30;;;8.50;;
46158;SDS011;31888;44.512;26.104;2023-11-19T06:32:43;12.52;;;7.68;;
46158;SDS011;31888;44.512;26.104;2023-11-19T06:35:07;10.63;;;6.93;;
46158;SDS011;31888;44.512;26.104;2023-11-19T06:37:31;12.75;;;7.40;;
46158;SDS011;31888;44.512;26.104;2023-11-19T06:39:55;11.85;;;7.85;;
46158;SDS011;31888;44.512;26.104;2023-11-19T06:42:21;11.00;;;6.93;;
46158;SDS011;31888;44.512;26.104;2023-11-19T06:44:45;11.80;;;7.88;;
46158;SDS011;31888;44.512;26.104;2023-11-19T06:47:09;13.20;;;7.18;;
46158;SDS011;31888;44.512;26.104;2023-11-19T06:49:33;9.88;;;7.00;;
46158;SDS011;31888;44.512;26.104;2023-11-19T06:51:57;10.68;;;7.43;;
46158;SDS011;31888;44.512;26.104;2023-11-19T06:54:21;11.65;;;6.72;;
46158;SDS011;31888;44.512;26.104;2023-11-19T06:56:45;11.00;;;6.78;;
46158;SDS011;31888;44.512;26.104;2023-11-19T06:59:11;13.98;;;8.82;;
46158;SDS011;31888;44.512;26.104;2023-11-19T07:01:35;11.63;;;7.60;;
46158;SDS011;31888;44.512;26.104;2023-11-19T07:03:59;12.55;;;8.07;;
46158;SDS011;31888;44.512;26.104;2023-11-19T07:06:29;10.88;;;7.60;;
46158;SDS011;31888;44.512;26.104;2023-11-19T07:08:56;13.77;;;8.18;;
46158;SDS011;31888;44.512;26.104;2023-11-19T07:11:20;11.88;;;8.23;;
46158;SDS011;31888;44.512;26.104;2023-11-19T07:13:47;12.82;;;8.00;;
46158;SDS011;31888;44.512;26.104;2023-11-19T07:16:15;11.77;;;8.27;;
46158;SDS011;31888;44.512;26.104;2023-11-19T07:18:42;13.02;;;7.85;;
46158;SDS011;31888;44.512;26.104;2023-11-19T07:21:06;20.52;;;9.45;;
46158;SDS011;31888;44.512;26.104;2023-11-19T07:23:32;11.77;;;7.70;;
46158;SDS011;31888;44.512;26.104;2023-11-19T07:25:56;13.68;;;8.50;;
46158;SDS011;31888;44.512;26.104;2023-11-19T07:28:20;15.15;;;8.18;;
46158;SDS011;31888;44.512;26.104;2023-11-19T07:30:45;10.73;;;7.55;;
46158;SDS011;31888;44.512;26.104;2023-11-19T07:33:12;9.48;;;6.28;;
46158;SDS011;31888;44.512;26.104;2023-11-19T07:35:36;9.02;;;6.65;;
46158;SDS011;31888;44.512;26.104;2023-11-19T07:38:00;10.48;;;7.15;;
46158;SDS011;31888;44.512;26.104;2023-11-19T07:40:24;11.85;;;7.60;;
46158;SDS011;31888;44.512;26.104;2023-11-19T07:42:49;9.20;;;6.95;;
46158;SDS011;31888;44.512;26.104;2023-11-19T07:45:15;10.82;;;7.80;;
46158;SDS011;31888;44.512;26.104;2023-11-19T07:47:39;14.10;;;8.68;;
46158;SDS011;31888;44.512;26.104;2023-11-19T07:50:05;11.95;;;8.20;;
46158;SDS011;31888;44.512;26.104;2023-11-19T07:52:29;10.95;;;8.15;;
46158;SDS011;31888;44.512;26.104;2023-11-19T07:54:53;11.38;;;8.43;;
46158;SDS011;31888;44.512;26.104;2023-11-19T07:57:17;9.95;;;7.40;;
46158;SDS011;31888;44.512;26.104;2023-11-19T07:59:42;9.65;;;6.85;;
46158;SDS011;31888;44.512;26.104;2023-11-19T08:02:05;10.90;;;7.15;;
46158;SDS011;31888;44.512;26.104;2023-11-19T08:04:29;9.65;;;6.80;;
46158;SDS011;31888;44.512;26.104;2023-11-19T08:06:55;8.77;;;5.95;;
46158;SDS011;31888;44.512;26.104;2023-11-19T08:09:19;7.68;;;6.05;;
46158;SDS011;31888;44.512;26.104;2023-11-19T08:11:43;7.47;;;6.00;;
46158;SDS011;31888;44.512;26.104;2023-11-19T08:14:07;7.10;;;5.60;;
46158;SDS011;31888;44.512;26.104;2023-11-19T08:16:31;5.80;;;4.75;;
46158;SDS011;31888;44.512;26.104;2023-11-19T08:18:55;6.00;;;4.60;;
46158;SDS011;31888;44.512;26.104;2023-11-19T08:21:20;5.18;;;4.40;;
46158;SDS011;31888;44.512;26.104;2023-11-19T08:23:46;8.50;;;5.28;;
46158;SDS011;31888;44.512;26.104;2023-11-19T08:26:10;6.28;;;4.90;;
46158;SDS011;31888;44.512;26.104;2023-11-19T08:28:34;6.43;;;4.85;;
46158;SDS011;31888;44.512;26.104;2023-11-19T08:30:58;6.18;;;4.55;;
46158;SDS011;31888;44.512;26.104;2023-11-19T08:33:22;6.32;;;3.80;;
46158;SDS011;31888;44.512;26.104;2023-11-19T08:35:45;5.57;;;3.97;;
46158;SDS011;31888;44.512;26.104;2023-11-19T08:38:13;4.25;;;3.60;;
46158;SDS011;31888;44.512;26.104;2023-11-19T08:40:54;4.45;;;3.58;;
46158;SDS011;31888;44.512;26.104;2023-11-19T08:43:21;5.90;;;3.95;;
46158;SDS011;31888;44.512;26.104;2023-11-19T08:45:45;6.05;;;4.43;;
46158;SDS011;31888;44.512;26.104;2023-11-19T08:48:09;6.32;;;4.13;;
46158;SDS011;31888;44.512;26.104;2023-11-19T08:50:34;7.78;;;3.78;;
46158;SDS011;31888;44.512;26.104;2023-11-19T08:52:58;5.53;;;4.00;;
46158;SDS011;31888;44.512;26.104;2023-11-19T08:55:21;4.88;;;4.07;;
46158;SDS011;31888;44.512;26.104;2023-11-19T08:57:47;4.47;;;3.53;;
46158;SDS011;31888;44.512;26.104;2023-11-19T09:00:11;11.40;;;4.60;;
46158;SDS011;31888;44.512;26.104;2023-11-19T09:02:36;6.68;;;3.40;;
46158;SDS011;31888;44.512;26.104;2023-11-19T09:05:00;4.22;;;3.63;;
46158;SDS011;31888;44.512;26.104;2023-11-19T09:07:25;5.43;;;4.05;;
46158;SDS011;31888;44.512;26.104;2023-11-19T09:09:49;3.80;;;3.40;;
46158;SDS011;31888;44.512;26.104;2023-11-19T09:12:13;3.97;;;3.58;;
46158;SDS011;31888;44.512;26.104;2023-11-19T09:14:40;4.78;;;3.95;;
46158;SDS011;31888;44.512;26.104;2023-11-19T09:17:05;4.32;;;3.47;;
46158;SDS011;31888;44.512;26.104;2023-11-19T09:19:32;6.05;;;4.03;;
46158;SDS011;31888;44.512;26.104;2023-11-19T09:21:57;5.70;;;3.70;;
46158;SDS011;31888;44.512;26.104;2023-11-19T09:24:29;5.22;;;3.33;;
46158;SDS011;31888;44.512;26.104;2023-11-19T09:26:53;3.63;;;3.08;;
46158;SDS011;31888;44.512;26.104;2023-11-19T09:29:18;5.43;;;2.97;;
46158;SDS011;31888;44.512;26.104;2023-11-19T09:31:46;4.20;;;3.20;;
46158;SDS011;31888;44.512;26.104;2023-11-19T09:34:10;4.55;;;3.75;;
46158;SDS011;31888;44.512;26.104;2023-11-19T09:36:37;3.40;;;2.92;;
46158;SDS011;31888;44.512;26.104;2023-11-19T09:39:06;4.33;;;3.30;;
46158;SDS011;31888;44.512;26.104;2023-11-19T09:41:30;4.45;;;3.20;;
46158;SDS011;31888;44.512;26.104;2023-11-19T09:43:56;4.93;;;3.40;;
46158;SDS011;31888;44.512;26.104;2023-11-19T09:46:21;3.35;;;3.05;;
46158;SDS011;31888;44.512;26.104;2023-11-19T09:48:48;3.83;;;3.13;;
46158;SDS011;31888;44.512;26.104;2023-11-19T09:51:16;3.13;;;2.83;;
46158;SDS011;31888;44.512;26.104;2023-11-19T09:53:40;2.80;;;2.53;;
46158;SDS011;31888;44.512;26.104;2023-11-19T09:56:05;3.53;;;3.03;;
46158;SDS011;31888;44.512;26.104;2023-11-19T09:58:32;2.92;;;2.63;;
46158;SDS011;31888;44.512;26.104;2023-11-19T10:00:56;3.83;;;3.20;;
46158;SDS011;31888;44.512;26.104;2023-11-19T10:03:41;3.30;;;2.50;;
46158;SDS011;31888;44.512;26.104;2023-11-19T10:06:08;3.13;;;2.60;;
46158;SDS011;31888;44.512;26.104;2023-11-19T10:08:33;3.00;;;2.35;;
46158;SDS011;31888;44.512;26.104;2023-11-19T10:10:57;3.17;;;2.60;;
46158;SDS011;31888;44.512;26.104;2023-11-19T10:13:25;3.83;;;2.63;;
46158;SDS011;31888;44.512;26.104;2023-11-19T10:15:53;3.92;;;2.45;;
46158;SDS011;31888;44.512;26.104;2023-11-19T10:18:23;2.85;;;2.42;;
46158;SDS011;31888;44.512;26.104;2023-11-19T10:23:15;2.90;;;2.40;;
46158;SDS011;31888;44.512;26.104;2023-11-19T10:25:39;3.40;;;2.65;;
46158;SDS011;31888;44.512;26.104;2023-11-19T10:28:11;3.83;;;2.30;;
46158;SDS011;31888;44.512;26.104;2023-11-19T10:30:39;4.68;;;2.78;;
46158;SDS011;31888;44.512;26.104;2023-11-19T10:33:05;5.13;;;2.40;;
46158;SDS011;31888;44.512;26.104;2023-11-19T10:35:30;3.92;;;3.00;;
46158;SDS011;31888;44.512;26.104;2023-11-19T10:37:54;3.88;;;2.70;;
46158;SDS011;31888;44.512;26.104;2023-11-19T10:40:20;3.38;;;2.70;;
46158;SDS011;31888;44.512;26.104;2023-11-19T10:42:44;4.18;;;3.00;;
46158;SDS011;31888;44.512;26.104;2023-11-19T10:45:21;6.38;;;2.40;;
46158;SDS011;31888;44.512;26.104;2023-11-19T10:47:46;4.22;;;2.80;;
46158;SDS011;31888;44.512;26.104;2023-11-19T10:50:11;2.70;;;2.28;;
46158;SDS011;31888;44.512;26.104;2023-11-19T10:52:35;3.03;;;2.47;;
46158;SDS011;31888;44.512;26.104;2023-11-19T10:55:00;3.67;;;2.45;;
46158;SDS011;31888;44.512;26.104;2023-11-19T10:57:30;3.03;;;2.40;;
46158;SDS011;31888;44.512;26.104;2023-11-19T11:00:00;3.08;;;2.03;;
46158;SDS011;31888;44.512;26.104;2023-11-19T11:02:41;5.47;;;2.78;;
46158;SDS011;31888;44.512;26.104;2023-11-19T11:05:08;3.67;;;2.50;;
46158;SDS011;31888;44.512;26.104;2023-11-19T11:07:35;4.15;;;2.10;;
46158;SDS011;31888;44.512;26.104;2023-11-19T11:10:02;2.72;;;2.10;;
46158;SDS011;31888;44.512;26.104;2023-11-19T11:12:30;4.18;;;2.58;;
46158;SDS011;31888;44.512;26.104;2023-11-19T11:14:58;3.47;;;2.28;;
46158;SDS011;31888;44.512;26.104;2023-11-19T11:17:24;5.07;;;2.85;;
46158;SDS011;31888;44.512;26.104;2023-11-19T11:19:51;4.07;;;2.45;;
46158;SDS011;31888;44.512;26.104;2023-11-19T11:22:15;2.90;;;2.17;;
46158;SDS011;31888;44.512;26.104;2023-11-19T11:25:02;4.22;;;2.42;;
46158;SDS011;31888;44.512;26.104;2023-11-19T11:30:31;3.78;;;2.22;;
46158;SDS011;31888;44.512;26.104;2023-11-19T11:33:13;3.85;;;2.22;;
46158;SDS011;31888;44.512;26.104;2023-11-19T11:35:50;4.82;;;2.97;;
46158;SDS011;31888;44.512;26.104;2023-11-19T11:38:21;4.45;;;2.58;;
46158;SDS011;31888;44.512;26.104;2023-11-19T11:40:50;6.50;;;2.45;;
46158;SDS011;31888;44.512;26.104;2023-11-19T11:43:51;3.28;;;2.50;;
46158;SDS011;31888;44.512;26.104;2023-11-19T11:49:24;5.60;;;2.10;;
46158;SDS011;31888;44.512;26.104;2023-11-19T11:51:58;3.38;;;2.20;;
46158;SDS011;31888;44.512;26.104;2023-11-19T11:54:26;3.78;;;2.45;;
46158;SDS011;31888;44.512;26.104;2023-11-19T11:57:00;3.17;;;2.33;;
46158;SDS011;31888;44.512;26.104;2023-11-19T11:59:41;3.15;;;2.20;;
46158;SDS011;31888;44.512;26.104;2023-11-19T12:02:08;4.65;;;2.70;;
46158;SDS011;31888;44.512;26.104;2023-11-19T12:04:33;2.90;;;2.17;;
46158;SDS011;31888;44.512;26.104;2023-11-19T12:07:05;3.83;;;2.67;;
46158;SDS011;31888;44.512;26.104;2023-11-19T12:09:29;4.50;;;2.47;;
46158;SDS011;31888;44.512;26.104;2023-11-19T12:12:00;3.75;;;2.58;;
46158;SDS011;31888;44.512;26.104;2023-11-19T12:17:42;5.88;;;2.92;;
46158;SDS011;31888;44.512;26.104;2023-11-19T12:20:13;4.82;;;3.10;;
46158;SDS011;31888;44.512;26.104;2023-11-19T12:22:54;5.25;;;3.13;;
46158;SDS011;31888;44.512;26.104;2023-11-19T12:25:19;4.30;;;3.03;;
46158;SDS011;31888;44.512;26.104;2023-11-19T12:27:44;4.60;;;2.97;;
46158;SDS011;31888;44.512;26.104;2023-11-19T12:30:14;7.70;;;3.15;;
46158;SDS011;31888;44.512;26.104;2023-11-19T12:32:41;7.00;;;2.92;;
46158;SDS011;31888;44.512;26.104;2023-11-19T12:35:06;4.88;;;3.47;;
46158;SDS011;31888;44.512;26.104;2023-11-19T12:37:33;5.47;;;3.13;;
46158;SDS011;31888;44.512;26.104;2023-11-19T12:40:01;8.48;;;3.88;;
46158;SDS011;31888;44.512;26.104;2023-11-19T12:42:36;4.57;;;2.88;;
46158;SDS011;31888;44.512;26.104;2023-11-19T12:45:00;4.45;;;3.03;;
46158;SDS011;31888;44.512;26.104;2023-11-19T12:47:26;8.32;;;5.00;;
46158;SDS011;31888;44.512;26.104;2023-11-19T12:49:55;9.15;;;5.30;;
46158;SDS011;31888;44.512;26.104;2023-11-19T12:52:19;5.63;;;3.73;;
46158;SDS011;31888;44.512;26.104;2023-11-19T12:54:44;10.63;;;4.45;;
46158;SDS011;31888;44.512;26.104;2023-11-19T12:57:08;10.73;;;5.53;;
46158;SDS011;31888;44.512;26.104;2023-11-19T12:59:32;8.30;;;4.22;;
46158;SDS011;31888;44.512;26.104;2023-11-19T13:01:56;5.32;;;3.38;;
46158;SDS011;31888;44.512;26.104;2023-11-19T13:04:22;3.05;;;2.30;;
46158;SDS011;31888;44.512;26.104;2023-11-19T13:06:47;5.13;;;2.65;;
46158;SDS011;31888;44.512;26.104;2023-11-19T13:09:23;3.58;;;2.50;;
46158;SDS011;31888;44.512;26.104;2023-11-19T13:11:48;3.42;;;2.78;;
46158;SDS011;31888;44.512;26.104;2023-11-19T13:14:12;8.07;;;2.88;;
46158;SDS011;31888;44.512;26.104;2023-11-19T13:16:39;4.00;;;2.50;;
46158;SDS011;31888;44.512;26.104;2023-11-19T13:19:04;4.97;;;2.90;;
46158;SDS011;31888;44.512;26.104;2023-11-19T13:21:30;4.60;;;2.75;;
46158;SDS011;31888;44.512;26.104;2023-11-19T13:23:54;3.95;;;2.60;;
46158;SDS011;31888;44.512;26.104;2023-11-19T13:26:18;4.60;;;2.92;;
46158;SDS011;31888;44.512;26.104;2023-11-19T13:28:42;5.57;;;2.90;;
46158;SDS011;31888;44.512;26.104;2023-11-19T13:31:07;5.05;;;3.28;;
46158;SDS011;31888;44.512;26.104;2023-11-19T13:33:32;6.40;;;3.20;;
46158;SDS011;31888;44.512;26.104;2023-11-19T13:35:57;5.88;;;3.30;;
46158;SDS011;31888;44.512;26.104;2023-11-19T13:38:23;4.43;;;2.97;;
46158;SDS011;31888;44.512;26.104;2023-11-19T13:40:47;4.60;;;2.90;;
46158;SDS011;31888;44.512;26.104;2023-11-19T13:43:11;6.82;;;3.08;;
46158;SDS011;31888;44.512;26.104;2023-11-19T13:45:35;6.65;;;3.58;;
46158;SDS011;31888;44.512;26.104;2023-11-19T13:47:59;4.60;;;3.30;;
46158;SDS011;31888;44.512;26.104;2023-11-19T13:50:23;6.13;;;3.15;;
46158;SDS011;31888;44.512;26.104;2023-11-19T13:52:47;5.72;;;3.40;;
46158;SDS011;31888;44.512;26.104;2023-11-19T13:55:13;6.80;;;3.20;;
46158;SDS011;31888;44.512;26.104;2023-11-19T13:57:38;7.63;;;3.38;;
46158;SDS011;31888;44.512;26.104;2023-11-19T14:00:03;6.78;;;4.05;;
46158;SDS011;31888;44.512;26.104;2023-11-19T14:02:29;7.05;;;4.40;;
46158;SDS011;31888;44.512;26.104;2023-11-19T14:04:53;5.63;;;3.40;;
46158;SDS011;31888;44.512;26.104;2023-11-19T14:07:19;5.45;;;3.47;;
46158;SDS011;31888;44.512;26.104;2023-11-19T14:09:44;8.20;;;4.32;;
46158;SDS011;31888;44.512;26.104;2023-11-19T14:12:12;8.18;;;4.00;;
46158;SDS011;31888;44.512;26.104;2023-11-19T14:14:36;8.73;;;4.47;;
46158;SDS011;31888;44.512;26.104;2023-11-19T14:17:01;8.25;;;4.72;;
46158;SDS011;31888;44.512;26.104;2023-11-19T14:19:28;9.63;;;4.97;;
46158;SDS011;31888;44.512;26.104;2023-11-19T14:21:57;8.52;;;4.88;;
46158;SDS011;31888;44.512;26.104;2023-11-19T14:24:21;8.95;;;5.18;;
46158;SDS011;31888;44.512;26.104;2023-11-19T14:26:46;8.18;;;4.65;;
46158;SDS011;31888;44.512;26.104;2023-11-19T14:29:13;8.57;;;4.80;;
46158;SDS011;31888;44.512;26.104;2023-11-19T14:31:37;15.45;;;5.75;;
46158;SDS011;31888;44.512;26.104;2023-11-19T14:34:02;11.65;;;5.85;;